RDN15 KGCN-KHND
Flight info
| Callsign | RDN15 |
|---|---|
| Flight time | 0h 33m |
| Altitude | 26000 |
| Route | BOEGY BOEGY2 |
| Aircraft | B737/M-SDE2E3FGHIRWXY/LB1 |
Departure
| Time | 2026-05-08 16:48 |
|---|---|
| Airport | Grand Canyon National Park Airport (KGCN) |
Arrival
| Time | 2026-05-08 17:22 |
|---|---|
| Airport | Henderson Executive Airport (KHND) |
| Time | Latitude | Longitude | Altitude | Speed | Heading |
|---|---|---|---|---|---|
| 2026-05-08 16:23 | 35.95783 | -112.13823 | 6576 ft | 0 kts | 129° |
| 2026-05-08 16:38 | 35.95782 | -112.13822 | 6576 ft | 1 kts | 129° |
| 2026-05-08 16:38 | 35.95777 | -112.13821 | 6576 ft | 1 kts | 185° |
| 2026-05-08 16:38 | 35.95768 | -112.13829 | 6576 ft | 4 kts | 221° |
| 2026-05-08 16:38 | 35.95763 | -112.13858 | 6576 ft | 0 kts | 307° |
| 2026-05-08 16:41 | 35.95764 | -112.13858 | 6576 ft | 0 kts | 307° |
| 2026-05-08 16:41 | 35.95770 | -112.13868 | 6576 ft | 2 kts | 307° |
| 2026-05-08 16:41 | 35.95771 | -112.13871 | 6576 ft | 0 kts | 307° |
| 2026-05-08 16:43 | 35.95773 | -112.13874 | 6576 ft | 4 kts | 307° |
| 2026-05-08 16:43 | 35.95826 | -112.13887 | 6576 ft | 10 kts | 32° |
| 2026-05-08 16:43 | 35.95882 | -112.13834 | 6576 ft | 10 kts | 41° |
| 2026-05-08 16:44 | 35.95932 | -112.13778 | 6576 ft | 10 kts | 41° |
| 2026-05-08 16:44 | 35.95982 | -112.13725 | 6576 ft | 9 kts | 40° |
| 2026-05-08 16:44 | 35.96030 | -112.13677 | 6576 ft | 9 kts | 37° |
| 2026-05-08 16:44 | 35.96059 | -112.13653 | 6576 ft | 3 kts | 43° |
| 2026-05-08 16:45 | 35.96074 | -112.13636 | 6576 ft | 3 kts | 44° |
| 2026-05-08 16:45 | 35.96088 | -112.13621 | 6576 ft | 3 kts | 24° |
| 2026-05-08 16:45 | 35.96097 | -112.13620 | 6576 ft | 0 kts | 343° |
| 2026-05-08 16:45 | 35.96098 | -112.13620 | 6576 ft | 0 kts | 343° |
| 2026-05-08 16:46 | 35.96099 | -112.13621 | 6576 ft | 1 kts | 342° |
| 2026-05-08 16:46 | 35.96120 | -112.13652 | 6576 ft | 10 kts | 306° |
| 2026-05-08 16:46 | 35.96150 | -112.13731 | 6576 ft | 7 kts | 217° |
| 2026-05-08 16:47 | 35.96015 | -112.13870 | 6576 ft | 51 kts | 222° |
| 2026-05-08 16:47 | 35.95613 | -112.14299 | 6576 ft | 101 kts | 218° |
| 2026-05-08 16:47 | 35.94991 | -112.14955 | 6576 ft | 141 kts | 219° |
| 2026-05-08 16:47 | 35.94194 | -112.15789 | 6778 ft | 158 kts | 226° |
| 2026-05-08 16:48 | 35.93339 | -112.16726 | 7128 ft | 173 kts | 224° |
| 2026-05-08 16:48 | 35.92351 | -112.17691 | 7467 ft | 187 kts | 221° |
| 2026-05-08 16:48 | 35.91512 | -112.18887 | 7940 ft | 183 kts | 251° |
| 2026-05-08 16:48 | 35.91317 | -112.20391 | 8497 ft | 181 kts | 275° |
| 2026-05-08 16:49 | 35.91486 | -112.22026 | 8818 ft | 204 kts | 279° |
| 2026-05-08 16:49 | 35.91665 | -112.23807 | 9102 ft | 228 kts | 280° |
| 2026-05-08 16:49 | 35.91875 | -112.25907 | 9397 ft | 253 kts | 280° |
| 2026-05-08 16:49 | 35.92098 | -112.28134 | 9949 ft | 269 kts | 280° |
| 2026-05-08 16:50 | 35.92331 | -112.30475 | 10692 ft | 279 kts | 280° |
| 2026-05-08 16:50 | 35.92575 | -112.32920 | 11301 ft | 296 kts | 280° |
| 2026-05-08 16:50 | 35.92835 | -112.35532 | 11758 ft | 317 kts | 279° |
| 2026-05-08 16:50 | 35.93112 | -112.38326 | 12153 ft | 339 kts | 279° |
| 2026-05-08 16:51 | 35.93405 | -112.41292 | 12608 ft | 356 kts | 279° |
| 2026-05-08 16:51 | 35.93708 | -112.44360 | 13381 ft | 363 kts | 279° |
| 2026-05-08 16:51 | 35.94014 | -112.47467 | 14208 ft | 368 kts | 279° |
| 2026-05-08 16:51 | 35.94323 | -112.50618 | 15090 ft | 370 kts | 279° |
| 2026-05-08 16:52 | 35.94631 | -112.53765 | 16120 ft | 370 kts | 279° |
| 2026-05-08 16:52 | 35.94942 | -112.56948 | 16884 ft | 377 kts | 279° |
| 2026-05-08 16:52 | 35.95257 | -112.60181 | 17573 ft | 383 kts | 279° |
| 2026-05-08 16:52 | 35.95582 | -112.63460 | 17949 ft | 385 kts | 280° |
| 2026-05-08 16:53 | 35.96273 | -112.70076 | 18083 ft | 397 kts | 279° |
| 2026-05-08 16:53 | 35.96618 | -112.73479 | 18090 ft | 401 kts | 279° |
| 2026-05-08 16:53 | 35.96960 | -112.76901 | 18085 ft | 401 kts | 279° |
| 2026-05-08 16:54 | 35.97299 | -112.80317 | 18080 ft | 401 kts | 279° |
| 2026-05-08 16:54 | 35.97634 | -112.83725 | 18078 ft | 401 kts | 279° |
| 2026-05-08 16:54 | 35.97968 | -112.87143 | 18078 ft | 401 kts | 279° |
| 2026-05-08 16:54 | 35.98301 | -112.90567 | 18078 ft | 401 kts | 279° |
| 2026-05-08 16:55 | 35.98633 | -112.93994 | 18079 ft | 402 kts | 279° |
| 2026-05-08 16:55 | 35.98965 | -112.97438 | 18079 ft | 408 kts | 279° |
| 2026-05-08 16:55 | 35.99301 | -113.00935 | 18083 ft | 412 kts | 279° |
| 2026-05-08 16:55 | 35.99637 | -113.04448 | 18084 ft | 412 kts | 279° |
| 2026-05-08 16:56 | 35.99973 | -113.07964 | 18084 ft | 412 kts | 279° |
| 2026-05-08 16:56 | 36.00308 | -113.11482 | 18082 ft | 413 kts | 279° |
| 2026-05-08 16:56 | 36.00604 | -113.14606 | 18081 ft | 413 kts | 279° |
| 2026-05-08 16:56 | 36.00936 | -113.18118 | 18081 ft | 413 kts | 279° |
| 2026-05-08 16:57 | 36.01270 | -113.21662 | 18065 ft | 414 kts | 279° |
| 2026-05-08 16:57 | 36.01602 | -113.25195 | 18056 ft | 414 kts | 279° |
| 2026-05-08 16:57 | 36.01933 | -113.28730 | 18051 ft | 414 kts | 279° |
| 2026-05-08 16:57 | 36.02262 | -113.32253 | 18048 ft | 414 kts | 279° |
| 2026-05-08 16:58 | 36.02592 | -113.35797 | 18043 ft | 415 kts | 279° |
| 2026-05-08 16:58 | 36.02921 | -113.39340 | 18039 ft | 415 kts | 279° |
| 2026-05-08 16:58 | 36.03248 | -113.42879 | 18039 ft | 415 kts | 278° |
| 2026-05-08 16:58 | 36.03574 | -113.46419 | 18042 ft | 414 kts | 278° |
| 2026-05-08 16:59 | 36.03898 | -113.49943 | 18048 ft | 413 kts | 278° |
| 2026-05-08 16:59 | 36.04222 | -113.53476 | 18052 ft | 413 kts | 278° |
| 2026-05-08 16:59 | 36.04544 | -113.57007 | 18053 ft | 414 kts | 278° |
| 2026-05-08 16:59 | 36.04865 | -113.60536 | 18050 ft | 414 kts | 278° |
| 2026-05-08 17:00 | 36.05186 | -113.64076 | 18050 ft | 414 kts | 278° |
| 2026-05-08 17:00 | 36.05515 | -113.67616 | 18050 ft | 414 kts | 279° |
| 2026-05-08 17:00 | 36.05850 | -113.71123 | 18047 ft | 404 kts | 278° |
| 2026-05-08 17:00 | 36.06158 | -113.74493 | 18044 ft | 384 kts | 278° |
| 2026-05-08 17:01 | 36.06448 | -113.77731 | 18005 ft | 366 kts | 278° |
| 2026-05-08 17:01 | 36.06720 | -113.80817 | 17730 ft | 357 kts | 278° |
| 2026-05-08 17:01 | 36.06985 | -113.83837 | 17429 ft | 350 kts | 278° |
| 2026-05-08 17:01 | 36.07243 | -113.86802 | 17128 ft | 344 kts | 278° |
| 2026-05-08 17:02 | 36.07495 | -113.89701 | 16827 ft | 336 kts | 278° |
| 2026-05-08 17:02 | 36.07742 | -113.92536 | 16526 ft | 328 kts | 278° |
| 2026-05-08 17:02 | 36.07982 | -113.95310 | 16224 ft | 321 kts | 278° |
| 2026-05-08 17:02 | 36.08217 | -113.98027 | 15923 ft | 315 kts | 278° |
| 2026-05-08 17:03 | 36.08449 | -114.00703 | 15622 ft | 311 kts | 278° |
| 2026-05-08 17:03 | 36.08668 | -114.03354 | 15273 ft | 311 kts | 275° |
| 2026-05-08 17:03 | 36.08514 | -114.06029 | 14929 ft | 313 kts | 260° |
| 2026-05-08 17:03 | 36.07825 | -114.08576 | 14632 ft | 314 kts | 249° |
| 2026-05-08 17:04 | 36.06906 | -114.11030 | 14331 ft | 313 kts | 246° |
| 2026-05-08 17:04 | 36.05914 | -114.13423 | 14030 ft | 313 kts | 245° |
| 2026-05-08 17:04 | 36.04910 | -114.15813 | 13729 ft | 311 kts | 245° |
| 2026-05-08 17:04 | 36.03926 | -114.18173 | 13429 ft | 309 kts | 245° |
| 2026-05-08 17:05 | 36.02943 | -114.20545 | 13128 ft | 309 kts | 245° |
| 2026-05-08 17:05 | 36.01966 | -114.22915 | 12828 ft | 310 kts | 245° |
| 2026-05-08 17:05 | 36.00993 | -114.25278 | 12527 ft | 308 kts | 245° |
| 2026-05-08 17:05 | 36.00023 | -114.27638 | 12228 ft | 310 kts | 245° |
| 2026-05-08 17:06 | 35.99045 | -114.30018 | 11927 ft | 310 kts | 245° |
| 2026-05-08 17:06 | 35.98400 | -114.31590 | 11728 ft | 308 kts | 245° |
| 2026-05-08 17:06 | 35.97452 | -114.33964 | 11427 ft | 308 kts | 246° |
| 2026-05-08 17:06 | 35.96503 | -114.36331 | 11126 ft | 306 kts | 245° |
| 2026-05-08 17:07 | 35.95556 | -114.38667 | 10826 ft | 304 kts | 245° |
| 2026-05-08 17:07 | 35.94300 | -114.41741 | 10427 ft | 301 kts | 245° |
| 2026-05-08 17:07 | 35.93663 | -114.43293 | 10225 ft | 300 kts | 245° |
| 2026-05-08 17:07 | 35.92414 | -114.46330 | 9827 ft | 299 kts | 245° |
| 2026-05-08 17:08 | 35.91778 | -114.47874 | 9623 ft | 298 kts | 245° |
| 2026-05-08 17:08 | 35.90840 | -114.50145 | 9323 ft | 297 kts | 245° |
| 2026-05-08 17:08 | 35.89901 | -114.52421 | 9022 ft | 297 kts | 245° |
| 2026-05-08 17:08 | 35.88967 | -114.54679 | 8722 ft | 296 kts | 245° |
| 2026-05-08 17:09 | 35.88038 | -114.56927 | 8420 ft | 291 kts | 245° |
| 2026-05-08 17:09 | 35.87148 | -114.59080 | 8126 ft | 285 kts | 245° |
| 2026-05-08 17:09 | 35.86247 | -114.61257 | 7822 ft | 279 kts | 245° |
| 2026-05-08 17:09 | 35.85372 | -114.63370 | 7519 ft | 274 kts | 245° |
| 2026-05-08 17:10 | 35.84504 | -114.65468 | 7221 ft | 269 kts | 245° |
| 2026-05-08 17:10 | 35.83696 | -114.67470 | 7072 ft | 258 kts | 248° |
| 2026-05-08 17:10 | 35.83083 | -114.69496 | 6941 ft | 247 kts | 255° |
| 2026-05-08 17:10 | 35.82618 | -114.71493 | 6872 ft | 239 kts | 258° |
| 2026-05-08 17:11 | 35.82173 | -114.73498 | 6681 ft | 239 kts | 255° |
| 2026-05-08 17:11 | 35.81719 | -114.75405 | 6550 ft | 232 kts | 256° |
| 2026-05-08 17:11 | 35.81264 | -114.77301 | 6421 ft | 228 kts | 256° |
| 2026-05-08 17:11 | 35.80806 | -114.79195 | 6294 ft | 228 kts | 256° |
| 2026-05-08 17:12 | 35.80352 | -114.81058 | 6169 ft | 227 kts | 256° |
| 2026-05-08 17:12 | 35.79896 | -114.82924 | 6049 ft | 226 kts | 256° |
| 2026-05-08 17:12 | 35.79444 | -114.84769 | 6031 ft | 225 kts | 256° |
| 2026-05-08 17:12 | 35.78993 | -114.86606 | 6029 ft | 222 kts | 256° |
| 2026-05-08 17:13 | 35.78558 | -114.88378 | 6040 ft | 215 kts | 256° |
| 2026-05-08 17:13 | 35.78127 | -114.90131 | 6033 ft | 208 kts | 256° |
| 2026-05-08 17:13 | 35.77713 | -114.91811 | 6027 ft | 203 kts | 256° |
| 2026-05-08 17:13 | 35.77313 | -114.93437 | 6027 ft | 200 kts | 256° |
| 2026-05-08 17:14 | 35.76909 | -114.95079 | 6034 ft | 201 kts | 256° |
| 2026-05-08 17:14 | 35.76502 | -114.96731 | 6039 ft | 202 kts | 256° |
| 2026-05-08 17:14 | 35.76237 | -114.98443 | 6038 ft | 200 kts | 268° |
| 2026-05-08 17:14 | 35.76189 | -115.00150 | 6028 ft | 200 kts | 272° |
| 2026-05-08 17:15 | 35.76173 | -115.01838 | 6063 ft | 199 kts | 272° |
| 2026-05-08 17:15 | 35.76154 | -115.03537 | 6095 ft | 199 kts | 272° |
| 2026-05-08 17:15 | 35.76136 | -115.05243 | 6075 ft | 200 kts | 272° |
| 2026-05-08 17:15 | 35.76117 | -115.06940 | 6054 ft | 195 kts | 272° |
| 2026-05-08 17:16 | 35.76096 | -115.08581 | 6068 ft | 189 kts | 272° |
| 2026-05-08 17:16 | 35.76072 | -115.10181 | 6043 ft | 186 kts | 272° |
| 2026-05-08 17:16 | 35.76081 | -115.11771 | 6022 ft | 185 kts | 279° |
| 2026-05-08 17:16 | 35.76494 | -115.13238 | 6015 ft | 181 kts | 300° |
| 2026-05-08 17:17 | 35.77376 | -115.14313 | 5981 ft | 178 kts | 335° |
| 2026-05-08 17:17 | 35.78601 | -115.14508 | 6024 ft | 179 kts | 360° |
| 2026-05-08 17:17 | 35.79848 | -115.14415 | 6037 ft | 180 kts | 2° |
| 2026-05-08 17:17 | 35.81080 | -115.14305 | 6019 ft | 180 kts | 2° |
| 2026-05-08 17:18 | 35.82318 | -115.14195 | 5965 ft | 176 kts | 2° |
| 2026-05-08 17:18 | 35.83497 | -115.14089 | 5859 ft | 162 kts | 2° |
| 2026-05-08 17:18 | 35.84599 | -115.13995 | 5657 ft | 151 kts | 1° |
| 2026-05-08 17:18 | 35.85606 | -115.13921 | 5447 ft | 144 kts | 1° |
| 2026-05-08 17:19 | 35.86577 | -115.13847 | 5171 ft | 136 kts | 1° |
| 2026-05-08 17:19 | 35.87531 | -115.13777 | 4908 ft | 139 kts | 1° |
| 2026-05-08 17:19 | 35.88493 | -115.13730 | 4680 ft | 138 kts | 359° |
| 2026-05-08 17:19 | 35.89463 | -115.13721 | 4416 ft | 141 kts | 358° |
| 2026-05-08 17:20 | 35.90445 | -115.13761 | 4163 ft | 142 kts | 4° |
| 2026-05-08 17:20 | 35.91435 | -115.13669 | 3902 ft | 143 kts | 8° |
| 2026-05-08 17:20 | 35.92430 | -115.13581 | 3665 ft | 143 kts | 0° |
| 2026-05-08 17:20 | 35.93421 | -115.13598 | 3338 ft | 141 kts | 356° |
| 2026-05-08 17:21 | 35.94387 | -115.13577 | 3006 ft | 136 kts | 359° |
| 2026-05-08 17:21 | 35.95349 | -115.13563 | 2694 ft | 145 kts | 1° |
| 2026-05-08 17:21 | 35.96358 | -115.13557 | 2480 ft | 145 kts | 5° |
| 2026-05-08 17:21 | 35.97182 | -115.13542 | 2442 ft | 68 kts | 1° |
| 2026-05-08 17:22 | 35.97482 | -115.13539 | 2442 ft | 37 kts | 2° |
| 2026-05-08 17:22 | 35.97677 | -115.13536 | 2442 ft | 9 kts | 357° |
| 2026-05-08 17:22 | 35.97707 | -115.13586 | 2442 ft | 7 kts | 278° |
| 2026-05-08 17:22 | 35.97708 | -115.13641 | 2442 ft | 6 kts | 268° |
| 2026-05-08 17:23 | 35.97706 | -115.13694 | 2442 ft | 6 kts | 269° |
| 2026-05-08 17:23 | 35.97692 | -115.13740 | 2442 ft | 4 kts | 210° |
| 2026-05-08 17:23 | 35.97648 | -115.13740 | 2442 ft | 13 kts | 180° |
| 2026-05-08 17:23 | 35.97547 | -115.13740 | 2442 ft | 13 kts | 178° |
| 2026-05-08 17:24 | 35.97458 | -115.13740 | 2442 ft | 13 kts | 181° |
| 2026-05-08 17:24 | 35.97402 | -115.13759 | 2442 ft | 4 kts | 270° |
| 2026-05-08 17:24 | 35.97403 | -115.13792 | 2442 ft | 4 kts | 272° |
| 2026-05-08 17:24 | 35.97404 | -115.13822 | 2442 ft | 3 kts | 272° |
| 2026-05-08 17:25 | 35.97404 | -115.13851 | 2442 ft | 3 kts | 259° |
| 2026-05-08 17:25 | 35.97387 | -115.13865 | 2442 ft | 2 kts | 184° |
| 2026-05-08 17:25 | 35.97381 | -115.13865 | 2442 ft | 1 kts | 179° |